Time;durP1;ratioP1;P1;durP2;ratioP2;P2;SDS_P1;SDS_P2;PMS_P1;PMS_P2;Temp;Humidity;BMP_temperature;BMP_pressure;BME280_temperature;BME280_humidity;BME280_pressure;Samples;Min_cycle;Max_cycle;Signal;HPM_P1;HPM_P2
2024/03/17 00:00:34;;;;;;;38.80;26.00;;;;;;;7.91;100.00;100802.90;108286;1253;61244;-66
2024/03/17 00:03:02;;;;;;;42.30;25.30;;;;;;;7.89;100.00;100802.09;108323;1254;58998;-67
2024/03/17 00:05:30;;;;;;;42.60;26.00;;;;;;;7.90;100.00;100799.73;108291;1252;73391;-67
2024/03/17 00:07:58;;;;;;;40.70;25.50;;;;;;;7.91;100.00;100796.52;108263;1253;72707;-67
2024/03/17 00:10:26;;;;;;;44.00;27.00;;;;;;;7.92;100.00;100794.45;108277;1253;70908;-67
2024/03/17 00:12:53;;;;;;;40.70;25.90;;;;;;;7.96;100.00;100792.27;108258;1254;61113;-68
2024/03/17 00:15:21;;;;;;;42.10;26.50;;;;;;;7.97;100.00;100791.49;108311;1252;61217;-67
2024/03/17 00:17:50;;;;;;;40.00;24.70;;;;;;;7.99;100.00;100783.70;108268;1253;73362;-68
2024/03/17 00:20:21;;;;;;;41.80;26.30;;;;;;;8.02;100.00;100779.67;108310;1254;72816;-67
2024/03/17 00:22:50;;;;;;;41.70;26.00;;;;;;;7.93;100.00;100779.59;108241;1253;71201;-69
2024/03/17 00:25:17;;;;;;;42.10;26.30;;;;;;;7.87;100.00;100776.76;108246;1254;61262;-67
2024/03/17 00:27:48;;;;;;;39.70;25.60;;;;;;;7.91;100.00;100775.79;108289;1253;61237;-67
2024/03/17 00:30:15;;;;;;;42.90;26.20;;;;;;;7.99;100.00;100775.35;108275;1254;74676;-67
2024/03/17 00:32:43;;;;;;;46.70;27.70;;;;;;;8.01;100.00;100772.67;108301;1253;72054;-67
2024/03/17 00:35:14;;;;;;;41.90;27.80;;;;;;;8.06;100.00;100773.05;108256;1254;71094;-68
2024/03/17 00:37:41;;;;;;;48.00;28.60;;;;;;;8.09;100.00;100765.92;108264;1253;61222;-67
2024/03/17 00:40:11;;;;;;;42.40;27.60;;;;;;;8.12;100.00;100760.39;108302;1252;61231;-68
2024/03/17 00:42:39;;;;;;;44.10;27.40;;;;;;;8.14;100.00;100759.59;108297;1253;73658;-66
2024/03/17 00:45:07;;;;;;;46.00;29.10;;;;;;;8.15;100.00;100759.80;108317;1254;71432;-67
2024/03/17 00:47:35;;;;;;;46.00;28.70;;;;;;;8.14;100.00;100758.90;108289;1252;71352;-66
2024/03/17 00:50:04;;;;;;;47.20;27.80;;;;;;;8.10;100.00;100757.55;108309;1254;60430;-67
2024/03/17 00:52:32;;;;;;;43.50;27.40;;;;;;;7.88;100.00;100755.18;108318;1253;61129;-67
2024/03/17 00:54:59;;;;;;;46.10;28.50;;;;;;;7.82;100.00;100754.09;108288;1254;75206;-67
2024/03/17 00:57:28;;;;;;;46.70;27.80;;;;;;;7.79;100.00;100753.22;108287;1254;71125;-68
2024/03/17 00:59:56;;;;;;;44.20;27.60;;;;;;;7.78;100.00;100748.68;108341;1254;71269;-67
2024/03/17 01:02:24;;;;;;;48.70;29.30;;;;;;;7.77;100.00;100745.84;108301;1254;61704;-66
2024/03/17 01:04:51;;;;;;;47.40;29.00;;;;;;;7.76;100.00;100744.86;108311;1253;61122;-66
2024/03/17 01:07:19;;;;;;;45.60;27.40;;;;;;;7.75;100.00;100744.26;108280;1254;74580;-68
2024/03/17 01:09:47;;;;;;;46.10;26.70;;;;;;;7.73;100.00;100742.77;108357;1254;71435;-66
2024/03/17 01:12:15;;;;;;;42.30;25.90;;;;;;;7.71;100.00;100735.35;108295;1254;72668;-67
2024/03/17 01:14:43;;;;;;;40.50;26.20;;;;;;;7.69;100.00;100738.23;108287;1254;61230;-66
2024/03/17 01:17:10;;;;;;;40.50;26.20;;;;;;;7.64;100.00;100735.50;108276;1254;60071;-67
2024/03/17 01:19:38;;;;;;;40.90;26.80;;;;;;;7.66;100.00;100734.33;108344;1253;73311;-66
2024/03/17 01:22:06;;;;;;;41.60;25.50;;;;;;;7.65;100.00;100734.31;108273;1253;72313;-67
2024/03/17 01:24:34;;;;;;;39.80;26.40;;;;;;;7.66;100.00;100732.44;108270;1253;72020;-67
2024/03/17 01:27:01;;;;;;;39.70;25.70;;;;;;;7.67;100.00;100728.58;108083;1258;61097;-66
2024/03/17 01:29:29;;;;;;;40.00;26.10;;;;;;;7.67;100.00;100727.65;108253;1253;61212;-67
2024/03/17 01:31:56;;;;;;;40.30;26.50;;;;;;;7.66;100.00;100728.96;108238;1254;73655;-66
2024/03/17 01:34:24;;;;;;;42.00;27.30;;;;;;;7.65;100.00;100725.13;108240;1254;70539;-66
2024/03/17 01:36:52;;;;;;;41.60;26.00;;;;;;;7.62;100.00;100723.04;108239;1254;71383;-67
2024/03/17 01:39:21;;;;;;;39.70;25.30;;;;;;;7.61;100.00;100724.66;108223;1254;61183;-67
2024/03/17 01:41:48;;;;;;;39.10;24.70;;;;;;;7.60;100.00;100722.77;108234;1252;61000;-67
2024/03/17 01:44:23;;;;;;;41.20;27.70;;;;;;;7.61;100.00;100722.16;108280;1254;75213;-67
2024/03/17 01:46:53;;;;;;;42.30;27.30;;;;;;;7.72;100.00;100716.48;108331;1252;72878;-66
2024/03/17 01:49:21;;;;;;;46.00;27.90;;;;;;;7.83;100.00;100716.49;108262;1254;71263;-66
2024/03/17 01:51:48;;;;;;;42.00;27.50;;;;;;;7.86;100.00;100715.70;108481;1254;61475;-66
2024/03/17 01:54:16;;;;;;;41.50;26.40;;;;;;;7.86;100.00;100712.73;108239;1252;61221;-66
2024/03/17 01:56:44;;;;;;;43.70;26.20;;;;;;;7.86;100.00;100717.36;108202;1252;73663;-66
2024/03/17 01:59:14;;;;;;;40.60;26.20;;;;;;;7.84;100.00;100711.20;108274;1254;72566;-66
2024/03/17 02:01:41;;;;;;;42.00;26.10;;;;;;;7.80;100.00;100710.05;108228;1254;74705;-66
2024/03/17 02:04:09;;;;;;;43.90;27.00;;;;;;;7.76;100.00;100710.03;108233;1253;61140;-66
2024/03/17 02:06:37;;;;;;;42.40;26.20;;;;;;;7.77;100.00;100703.68;108253;1252;61213;-68
2024/03/17 02:09:04;;;;;;;39.10;25.50;;;;;;;7.78;100.00;100704.38;108279;1254;74684;-67
2024/03/17 02:11:33;;;;;;;39.90;26.20;;;;;;;7.76;100.00;100701.95;108201;1254;72763;-67
2024/03/17 02:14:01;;;;;;;38.50;24.60;;;;;;;7.75;100.00;100702.58;108245;1254;73237;-66
2024/03/17 02:16:28;;;;;;;40.80;26.10;;;;;;;7.75;100.00;100701.71;108228;1254;61693;-67
2024/03/17 02:18:57;;;;;;;40.40;26.10;;;;;;;7.74;100.00;100701.70;108179;1253;61203;-66
2024/03/17 02:21:27;;;;;;;39.10;25.90;;;;;;;7.73;100.00;100703.02;108289;1252;74609;-66
2024/03/17 02:23:54;;;;;;;41.50;25.70;;;;;;;7.70;100.00;100700.98;108262;1254;73116;-69
2024/03/17 02:26:24;;;;;;;41.60;26.80;;;;;;;7.68;100.00;100699.55;108254;1253;71429;-67
2024/03/17 02:28:52;;;;;;;39.20;26.40;;;;;;;7.69;100.00;100695.52;108281;1254;61660;-67
2024/03/17 02:31:22;;;;;;;40.00;25.70;;;;;;;7.71;100.00;100695.63;108196;1254;61112;-66
2024/03/17 02:33:49;;;;;;;39.40;24.90;;;;;;;7.69;100.00;100696.02;108256;1254;74557;-66
2024/03/17 02:36:17;;;;;;;39.00;25.80;;;;;;;7.65;100.00;100695.82;108244;1256;70779;-66
2024/03/17 02:41:31;;;;;;;44.20;25.50;;;;;;;7.53;100.00;100699.39;108443;1253;61317;-66
2024/03/17 02:43:59;;;;;;;38.00;24.90;;;;;;;7.50;100.00;100698.09;108237;1254;61096;-66
2024/03/17 02:46:27;;;;;;;32.90;23.40;;;;;;;7.49;100.00;100693.04;108161;1252;73854;-66
2024/03/17 02:48:55;;;;;;;36.40;24.10;;;;;;;7.48;100.00;100692.85;108291;1252;73024;-66
2024/03/17 02:51:24;;;;;;;39.40;24.90;;;;;;;7.43;100.00;100690.57;108280;1253;71436;-66
2024/03/17 02:53:52;;;;;;;38.10;24.70;;;;;;;7.40;100.00;100692.73;108231;1254;61138;-67
2024/03/17 02:56:19;;;;;;;38.60;24.80;;;;;;;7.38;100.00;100687.21;108173;1258;60123;-66
2024/03/17 02:58:47;;;;;;;36.10;23.90;;;;;;;7.33;100.00;100684.80;108250;1253;73428;-66
2024/03/17 03:01:16;;;;;;;36.10;25.00;;;;;;;7.26;100.00;100679.68;108317;1253;71664;-66
2024/03/17 03:03:43;;;;;;;39.40;25.10;;;;;;;7.22;100.00;100676.45;108244;1253;71260;-66
2024/03/17 03:06:12;;;;;;;36.20;23.60;;;;;;;7.22;100.00;100679.42;108266;1254;61518;-66
2024/03/17 03:08:41;;;;;;;38.40;25.10;;;;;;;7.24;100.00;100676.91;108189;1257;61086;-66
2024/03/17 03:11:11;;;;;;;37.20;24.90;;;;;;;7.25;100.00;100677.33;108140;1253;73413;-65
2024/03/17 03:13:41;;;;;;;39.40;25.40;;;;;;;7.30;100.00;100679.70;108181;1254;72843;-66
2024/03/17 03:16:18;;;;;;;38.70;25.80;;;;;;;7.35;100.00;100681.98;108139;1253;72699;-65
2024/03/17 03:18:45;;;;;;;36.60;24.20;;;;;;;7.42;100.00;100679.07;108250;1252;61160;-67
2024/03/17 03:21:13;;;;;;;39.60;26.00;;;;;;;7.48;100.00;100679.89;108249;1254;59000;-67
2024/03/17 03:23:41;;;;;;;40.80;25.90;;;;;;;7.54;100.00;100673.89;108259;1254;72779;-66
2024/03/17 03:26:09;;;;;;;40.80;25.30;;;;;;;7.59;100.00;100674.42;108326;1254;71484;-66
2024/03/17 03:28:37;;;;;;;38.80;25.20;;;;;;;7.62;100.00;100671.77;108177;1254;72544;-67
2024/03/17 03:31:04;;;;;;;40.90;26.00;;;;;;;7.64;100.00;100671.55;108308;1253;61397;-67
2024/03/17 03:33:32;;;;;;;40.20;25.80;;;;;;;7.63;100.00;100668.60;108259;1253;61163;-66
2024/03/17 03:36:06;;;;;;;40.20;25.40;;;;;;;7.64;100.00;100663.64;108233;1253;74712;-67
2024/03/17 03:38:34;;;;;;;39.10;25.10;;;;;;;7.67;100.00;100663.76;108232;1254;72473;-68
2024/03/17 03:41:09;;;;;;;38.50;25.20;;;;;;;7.69;100.00;100662.29;108159;1254;71450;-66
2024/03/17 03:43:36;;;;;;;36.90;24.80;;;;;;;7.71;100.00;100661.91;108348;1254;61957;-66
2024/03/17 03:46:04;;;;;;;40.60;26.30;;;;;;;7.75;100.00;100663.75;108290;1254;62869;-65
2024/03/17 03:48:32;;;;;;;35.50;24.90;;;;;;;7.75;100.00;100660.81;108469;1254;73396;-66
2024/03/17 03:51:06;;;;;;;36.60;24.50;;;;;;;7.72;100.00;100661.64;108235;1253;71429;-66
2024/03/17 03:53:34;;;;;;;36.40;24.50;;;;;;;7.73;100.00;100662.39;108271;1253;71945;-66
2024/03/17 03:56:08;;;;;;;40.20;25.90;;;;;;;7.80;100.00;100661.13;108264;1254;61652;-66
2024/03/17 03:58:36;;;;;;;36.30;24.90;;;;;;;7.74;100.00;100658.95;108247;1252;61121;-65
2024/03/17 04:01:07;;;;;;;38.70;25.40;;;;;;;7.72;100.00;100657.84;108293;1252;73419;-66
2024/03/17 04:03:35;;;;;;;36.80;24.90;;;;;;;7.69;100.00;100654.21;108263;1254;72764;-67
2024/03/17 04:06:05;;;;;;;37.30;25.10;;;;;;;7.73;100.00;100658.80;108246;1254;71440;-68
2024/03/17 04:08:33;;;;;;;39.20;25.20;;;;;;;7.73;100.00;100654.46;108288;1254;61050;-66
2024/03/17 04:11:01;;;;;;;38.60;24.80;;;;;;;7.69;100.00;100653.11;108314;1254;61224;-67
2024/03/17 04:13:35;;;;;;;40.70;26.60;;;;;;;7.66;100.00;100651.86;108375;1254;74783;-67
2024/03/17 04:16:06;;;;;;;40.10;25.60;;;;;;;7.64;100.00;100653.70;108261;1254;73301;-67
2024/03/17 04:18:34;;;;;;;38.70;24.50;;;;;;;7.65;100.00;100652.00;108247;1254;72777;-68
2024/03/17 04:21:03;;;;;;;40.10;25.50;;;;;;;7.66;100.00;100653.58;108229;1254;61834;-67
2024/03/17 04:23:34;;;;;;;38.20;26.00;;;;;;;7.69;100.00;100650.70;108366;1253;61351;-67
2024/03/17 04:26:03;;;;;;;38.30;25.10;;;;;;;7.72;100.00;100650.46;108200;1254;74180;-68
2024/03/17 04:28:31;;;;;;;39.10;25.40;;;;;;;7.75;100.00;100649.80;108275;1256;74652;-68
2024/03/17 04:31:04;;;;;;;37.50;24.80;;;;;;;7.72;100.00;100650.17;108258;1254;71915;-67
2024/03/17 04:33:36;;;;;;;39.70;25.40;;;;;;;7.80;100.00;100650.29;108296;1253;64551;-68
2024/03/17 04:36:04;;;;;;;37.00;25.10;;;;;;;7.83;100.00;100649.97;108228;1254;61148;-68
2024/03/17 04:38:32;;;;;;;40.00;24.80;;;;;;;7.86;100.00;100652.15;108277;1253;76141;-67
2024/03/17 04:41:08;;;;;;;38.40;25.00;;;;;;;7.89;100.00;100650.25;108204;1253;72742;-68
2024/03/17 04:43:36;;;;;;;37.80;24.70;;;;;;;7.92;100.00;100645.45;108236;1253;72776;-67
2024/03/17 04:46:06;;;;;;;35.70;24.10;;;;;;;7.93;100.00;100640.06;108185;1254;61080;-68
2024/03/17 04:48:38;;;;;;;38.80;24.20;;;;;;;7.95;100.00;100634.50;108174;1254;62079;-67
2024/03/17 04:51:17;;;;;;;40.30;25.30;;;;;;;7.97;100.00;100635.36;108284;1254;73340;-67
2024/03/17 04:53:48;;;;;;;38.20;24.70;;;;;;;7.97;100.00;100632.58;108205;1254;72771;-65
2024/03/17 04:56:18;;;;;;;39.30;23.80;;;;;;;7.97;100.00;100634.66;108186;1253;72662;-67
2024/03/17 04:58:46;;;;;;;35.10;24.50;;;;;;;7.99;100.00;100630.08;108213;1253;61157;-66
2024/03/17 05:01:19;;;;;;;38.90;25.80;;;;;;;8.01;100.00;100627.66;108215;1254;61294;-66
2024/03/17 05:03:47;;;;;;;36.70;24.20;;;;;;;8.01;100.00;100627.98;108161;1254;72808;-66
2024/03/17 05:06:21;;;;;;;39.50;25.30;;;;;;;8.01;100.00;100629.63;108170;1254;72516;-67
2024/03/17 05:08:48;;;;;;;;;;;;;;;8.02;100.00;100623.95;108233;1254;72805;-68
2024/03/17 05:11:30;;;;;;;37.40;25.30;;;;;;;8.04;100.00;100626.27;108238;1253;60984;-67
2024/03/17 05:14:08;;;;;;;38.30;23.50;;;;;;;8.07;100.00;100626.96;108256;1254;61099;-67
2024/03/17 05:16:36;;;;;;;39.30;25.10;;;;;;;8.09;100.00;100626.38;108193;1253;74710;-67
2024/03/17 05:19:04;;;;;;;38.80;24.40;;;;;;;8.13;100.00;100621.74;108243;1256;71556;-66
2024/03/17 05:21:32;;;;;;;37.70;24.20;;;;;;;8.16;100.00;100622.40;108270;1254;72471;-66
2024/03/17 05:24:01;;;;;;;36.40;24.70;;;;;;;8.20;100.00;100624.91;108232;1253;61148;-66
2024/03/17 05:26:31;;;;;;;36.70;24.60;;;;;;;8.23;100.00;100627.05;108130;1254;61093;-66
2024/03/17 05:28:59;;;;;;;30.70;21.70;;;;;;;8.26;100.00;100624.27;108231;1254;74829;-67
2024/03/17 05:31:27;;;;;;;34.20;23.00;;;;;;;8.31;100.00;100625.73;108348;1252;71779;-67
2024/03/17 05:33:55;;;;;;;31.70;21.10;;;;;;;8.35;100.00;100627.23;108267;1253;71408;-68
2024/03/17 05:36:22;;;;;;;31.70;21.20;;;;;;;8.11;100.00;100631.14;108069;1254;61073;-67
2024/03/17 05:38:50;;;;;;;30.60;20.50;;;;;;;8.05;100.00;100631.29;108215;1252;61196;-70
2024/03/17 05:41:17;;;;;;;31.40;20.10;;;;;;;8.05;100.00;100626.13;108213;1254;74690;-67
2024/03/17 05:43:45;;;;;;;32.00;20.50;;;;;;;8.14;100.00;100625.65;108236;1253;71708;-66
2024/03/17 05:46:13;;;;;;;29.70;19.80;;;;;;;8.33;100.00;100625.61;108173;1256;71416;-66
2024/03/17 05:48:41;;;;;;;30.50;18.80;;;;;;;8.37;100.00;100629.16;108269;1253;61074;-68
2024/03/17 05:51:10;;;;;;;28.50;17.50;;;;;;;8.44;100.00;100636.85;108224;1256;61300;-65
2024/03/17 05:53:43;;;;;;;27.80;18.30;;;;;;;8.48;100.00;100633.40;108337;1254;73186;-67
2024/03/17 05:56:12;;;;;;;26.60;18.20;;;;;;;8.52;100.00;100630.55;108305;1254;72736;-66
2024/03/17 05:58:40;;;;;;;31.00;20.00;;;;;;;8.56;100.00;100628.48;108012;1257;71087;-67
2024/03/17 06:01:07;;;;;;;32.10;20.00;;;;;;;8.61;100.00;100631.23;108295;1254;61700;-67
2024/03/17 06:03:38;;;;;;;25.40;17.80;;;;;;;8.70;100.00;100632.48;108334;1254;61144;-66
2024/03/17 06:06:12;;;;;;;28.90;19.20;;;;;;;8.85;100.00;100628.72;108247;1256;74658;-68
2024/03/17 06:08:40;;;;;;;29.10;20.30;;;;;;;8.93;100.00;100634.52;108068;1254;71914;-67
2024/03/17 06:11:08;;;;;;;29.70;19.40;;;;;;;8.93;100.00;100632.84;108235;1253;71703;-67
2024/03/17 06:13:36;;;;;;;26.70;18.50;;;;;;;8.89;100.00;100636.23;108104;1254;61237;-67
2024/03/17 06:16:05;;;;;;;27.70;18.70;;;;;;;8.84;100.00;100641.44;108111;1254;62776;-67
2024/03/17 06:18:32;;;;;;;27.00;18.70;;;;;;;8.79;100.00;100643.81;108364;1254;77085;-67
2024/03/17 06:21:00;;;;;;;25.10;17.20;;;;;;;8.78;100.00;100645.44;108306;1254;75033;-67
2024/03/17 06:23:28;;;;;;;30.10;20.10;;;;;;;8.72;100.00;100646.98;108213;1256;72742;-67
2024/03/17 06:25:56;;;;;;;28.00;19.70;;;;;;;8.67;100.00;100642.55;108287;1256;60558;-67
2024/03/17 06:28:24;;;;;;;25.90;17.70;;;;;;;8.63;100.00;100648.98;108229;1254;61070;-67
2024/03/17 06:30:56;;;;;;;25.10;17.40;;;;;;;8.58;100.00;100649.05;108388;1254;73439;-67
2024/03/17 06:33:24;;;;;;;24.90;17.50;;;;;;;8.50;100.00;100651.21;108217;1254;72945;-68
2024/03/17 06:35:52;;;;;;;24.80;17.00;;;;;;;8.42;100.00;100652.36;108202;1254;72714;-67
2024/03/17 06:38:19;;;;;;;25.30;17.50;;;;;;;8.38;100.00;100651.50;108190;1254;61186;-67
2024/03/17 06:40:51;;;;;;;24.90;17.40;;;;;;;8.35;100.00;100650.98;108245;1256;59062;-67
2024/03/17 06:43:19;;;;;;;26.00;17.00;;;;;;;8.35;100.00;100650.12;108269;1254;74797;-66
2024/03/17 06:46:13;;;;;;;25.40;17.60;;;;;;;8.29;100.00;100650.77;108320;1254;71432;-67
2024/03/17 06:48:41;;;;;;;23.40;15.10;;;;;;;8.24;100.00;100650.58;108181;1254;72421;-67
2024/03/17 06:51:09;;;;;;;21.90;15.10;;;;;;;8.17;100.00;100651.69;108259;1256;61773;-67
2024/03/17 06:53:37;;;;;;;19.30;13.80;;;;;;;8.22;100.00;100651.14;108092;1254;59005;-67
2024/03/17 06:56:05;;;;;;;17.80;12.00;;;;;;;8.29;100.00;100650.50;108202;1254;73385;-67
2024/03/17 06:58:33;;;;;;;19.60;13.50;;;;;;;8.29;100.00;100651.77;108204;1252;72759;-66
2024/03/17 07:01:01;;;;;;;21.00;14.50;;;;;;;8.21;100.00;100656.00;108223;1255;73018;-68
2024/03/17 07:03:29;;;;;;;21.00;15.00;;;;;;;8.08;100.00;100657.14;108275;1255;61668;-68
2024/03/17 07:06:01;;;;;;;18.20;12.00;;;;;;;8.01;100.00;100661.38;108221;1254;61131;-68
2024/03/17 07:08:30;;;;;;;20.40;14.00;;;;;;;8.04;100.00;100664.30;108197;1255;73473;-68
2024/03/17 07:11:02;;;;;;;20.70;13.90;;;;;;;8.14;100.00;100655.94;108171;1254;72437;-68
2024/03/17 07:13:32;;;;;;;18.90;13.50;;;;;;;8.18;100.00;100654.98;108136;1257;71471;-67
2024/03/17 07:16:01;;;;;;;18.20;12.50;;;;;;;8.19;100.00;100651.24;108047;1254;61675;-67
2024/03/17 07:18:29;;;;;;;18.60;13.60;;;;;;;8.26;100.00;100650.13;108132;1254;61041;-67
2024/03/17 07:20:58;;;;;;;17.20;11.70;;;;;;;8.24;100.00;100653.55;108184;1259;73467;-68
2024/03/17 07:23:26;;;;;;;17.80;12.60;;;;;;;8.35;100.00;100653.66;108181;1255;71457;-67
2024/03/17 07:26:00;;;;;;;16.50;11.80;;;;;;;8.43;100.00;100652.33;108194;1254;71267;-67
2024/03/17 07:28:28;;;;;;;17.60;12.40;;;;;;;8.34;100.00;100648.58;108194;1254;61146;-67
2024/03/17 07:30:56;;;;;;;17.40;12.60;;;;;;;8.26;100.00;100640.29;108158;1254;61073;-67
2024/03/17 07:33:24;;;;;;;16.90;12.20;;;;;;;8.21;100.00;100645.58;108169;1254;73337;-66
2024/03/17 07:35:53;;;;;;;18.20;12.70;;;;;;;8.22;100.00;100643.31;108183;1255;71599;-69
2024/03/17 07:38:21;;;;;;;17.70;12.50;;;;;;;8.29;100.00;100638.86;108154;1253;71278;-67
2024/03/17 07:41:05;;;;;;;17.50;12.50;;;;;;;8.36;100.00;100633.02;108285;1254;61115;-67
2024/03/17 07:43:37;;;;;;;18.20;12.80;;;;;;;8.42;100.00;100638.10;108278;1257;60603;-67
2024/03/17 07:46:12;;;;;;;18.50;12.50;;;;;;;8.50;100.00;100635.14;108159;1254;74841;-66
2024/03/17 07:48:40;;;;;;;19.00;13.10;;;;;;;8.61;100.00;100634.42;108237;1254;72890;-67
2024/03/17 07:51:12;;;;;;;19.20;13.10;;;;;;;8.75;100.00;100634.10;108276;1256;71100;-66
2024/03/17 07:53:41;;;;;;;19.00;13.10;;;;;;;8.83;100.00;100631.84;108208;1259;61195;-68
2024/03/17 07:56:10;;;;;;;19.20;12.90;;;;;;;8.82;100.00;100629.21;108173;1257;61083;-67
2024/03/17 07:58:44;;;;;;;18.20;13.30;;;;;;;8.84;100.00;100622.41;108222;1257;73569;-66
2024/03/17 08:01:13;;;;;;;21.70;14.00;;;;;;;8.96;100.00;100619.71;108228;1254;71710;-66
2024/03/17 08:03:43;;;;;;;23.50;15.80;;;;;;;9.04;100.00;100621.52;108273;1254;72651;-67
2024/03/17 08:06:11;;;;;;;25.00;16.20;;;;;;;9.10;100.00;100620.78;108280;1256;61077;-68
2024/03/17 08:08:39;;;;;;;22.50;14.40;;;;;;;9.16;100.00;100619.94;108204;1254;61164;-67
2024/03/17 08:11:06;;;;;;;22.60;13.70;;;;;;;9.20;100.00;100615.14;108250;1254;73402;-66
2024/03/17 08:13:35;;;;;;;25.00;16.20;;;;;;;9.22;100.00;100616.13;108278;1254;71675;-67
2024/03/17 08:16:07;;;;;;;25.90;16.60;;;;;;;9.26;100.00;100607.50;108248;1254;71574;-68
2024/03/17 08:18:34;;;;;;;;;;;;;;;9.32;100.00;100610.02;108264;1256;60508;-68
2024/03/17 08:21:04;;;;;;;29.20;17.70;;;;;;;9.39;100.00;100608.63;108194;1253;61078;-71
2024/03/17 08:23:32;;;;;;;35.30;19.90;;;;;;;9.41;100.00;100608.50;108228;1253;74757;-68
2024/03/17 08:26:00;;;;;;;45.40;29.50;;;;;;;9.41;100.00;100606.42;108290;1256;71283;-68
2024/03/17 08:28:28;;;;;;;37.00;23.70;;;;;;;9.41;100.00;100602.89;108258;1254;70721;-68
2024/03/17 08:31:00;;;;;;;32.20;20.80;;;;;;;9.41;100.00;100599.53;108267;1254;60608;-66
2024/03/17 08:33:28;;;;;;;32.80;19.10;;;;;;;9.43;100.00;100594.64;108259;1253;61250;-67
2024/03/17 08:36:16;;;;;;;33.40;20.80;;;;;;;9.47;100.00;100596.08;108250;1254;74660;-67
2024/03/17 08:38:45;;;;;;;37.30;22.30;;;;;;;9.51;100.00;100591.11;108292;1254;70276;-67
2024/03/17 08:41:13;;;;;;;40.80;26.90;;;;;;;9.54;100.00;100590.05;108197;1254;71193;-68
2024/03/17 08:43:42;;;;;;;44.10;28.00;;;;;;;9.57;100.00;100587.03;108247;1253;61240;-67
2024/03/17 08:46:11;;;;;;;41.40;24.30;;;;;;;9.58;100.00;100585.52;108230;1254;60100;-68
2024/03/17 08:48:40;;;;;;;40.80;24.00;;;;;;;9.58;100.00;100585.45;108134;1257;74653;-67
2024/03/17 08:51:08;;;;;;;42.50;25.10;;;;;;;9.58;100.00;100582.57;108145;1253;72712;-68
2024/03/17 08:53:38;;;;;;;41.70;24.70;;;;;;;9.59;100.00;100577.94;108202;1254;73095;-70
2024/03/17 08:56:06;;;;;;;39.90;24.80;;;;;;;9.61;100.00;100572.57;108287;1253;61901;-68
2024/03/17 08:58:34;;;;;;;47.10;27.70;;;;;;;9.68;100.00;100568.38;108273;1254;62911;-67
2024/03/17 09:01:06;;;;;;;42.60;26.00;;;;;;;9.69;100.00;100570.27;108158;1253;76947;-67
2024/03/17 09:03:35;;;;;;;46.00;28.10;;;;;;;9.68;100.00;100570.99;108160;1254;71328;-67
2024/03/17 09:06:03;;;;;;;45.50;28.50;;;;;;;9.65;100.00;100568.02;108290;1253;71361;-67
2024/03/17 09:08:33;;;;;;;46.10;27.30;;;;;;;9.65;100.00;100568.83;108309;1253;61773;-68
2024/03/17 09:11:01;;;;;;;49.10;28.40;;;;;;;9.69;100.00;100564.65;108115;1254;61585;-66
2024/03/17 09:13:28;;;;;;;46.40;27.50;;;;;;;9.74;100.00;100571.86;108225;1254;74995;-67
2024/03/17 09:15:59;;;;;;;45.50;27.70;;;;;;;9.81;100.00;100569.95;108289;1254;75089;-66
2024/03/17 09:18:28;;;;;;;47.30;29.00;;;;;;;9.89;100.00;100570.71;108184;1257;74945;-67
2024/03/17 09:21:16;;;;;;;46.10;30.40;;;;;;;9.97;100.00;100566.00;108260;1254;61068;-67
2024/03/17 09:23:43;;;;;;;50.00;30.80;;;;;;;9.97;100.00;100568.71;108242;1254;61247;-67
2024/03/17 09:26:17;;;;;;;44.80;28.70;;;;;;;9.97;100.00;100568.94;108230;1254;76920;-68
2024/03/17 09:28:45;;;;;;;42.90;25.90;;;;;;;10.06;100.00;100568.02;108299;1254;73167;-68
2024/03/17 09:31:13;;;;;;;47.20;28.50;;;;;;;10.09;100.00;100566.81;108296;1254;72671;-68
2024/03/17 09:33:41;;;;;;;47.70;29.30;;;;;;;10.06;100.00;100568.27;108191;1254;61180;-68
2024/03/17 09:36:10;;;;;;;45.80;28.40;;;;;;;10.09;100.00;100569.37;108259;1252;61411;-68
2024/03/17 09:38:38;;;;;;;41.00;27.10;;;;;;;10.17;100.00;100564.32;108271;1254;77940;-68
2024/03/17 09:41:06;;;;;;;43.30;28.50;;;;;;;10.25;100.00;100568.40;108246;1254;75059;-68
2024/03/17 09:43:35;;;;;;;42.50;28.70;;;;;;;10.32;100.00;100566.45;108148;1254;74087;-67
2024/03/17 09:46:04;;;;;;;47.40;29.90;;;;;;;10.41;100.00;100569.30;108072;1254;63762;-68
2024/03/17 09:48:31;;;;;;;46.10;28.90;;;;;;;10.41;100.00;100566.90;108278;1253;61125;-67
2024/03/17 09:51:01;;;;;;;48.10;30.40;;;;;;;10.40;100.00;100562.71;108159;1254;75648;-68
2024/03/17 09:53:33;;;;;;;50.60;31.90;;;;;;;10.39;100.00;100561.27;108255;1253;75024;-67
2024/03/17 09:56:11;;;;;;;48.20;30.90;;;;;;;10.40;100.00;100555.46;108298;1253;73037;-68
2024/03/17 09:58:39;;;;;;;43.40;29.50;;;;;;;10.50;100.00;100549.33;108113;1253;63747;-68
2024/03/17 10:01:07;;;;;;;42.40;28.30;;;;;;;10.63;100.00;100545.63;108210;1254;62349;-66
2024/03/17 10:03:51;;;;;;;46.60;29.20;;;;;;;10.73;100.00;100544.09;108199;1255;76903;-67
2024/03/17 10:06:19;;;;;;;42.30;29.20;;;;;;;10.84;100.00;100545.27;108294;1254;75379;-67
2024/03/17 10:08:52;;;;;;;45.80;29.70;;;;;;;10.98;100.00;100541.98;108177;1257;73938;-69
2024/03/17 10:11:25;;;;;;;42.80;28.70;;;;;;;11.15;100.00;100541.30;108284;1254;62261;-67
2024/03/17 10:13:59;;;;;;;44.00;29.70;;;;;;;11.27;100.00;100538.85;108292;1253;61215;-66
2024/03/17 10:16:29;;;;;;;46.40;30.40;;;;;;;11.36;100.00;100538.02;108246;1254;76793;-67
2024/03/17 10:19:15;;;;;;;40.60;28.00;;;;;;;11.44;98.73;100541.32;108277;1254;75004;-67
2024/03/17 10:21:46;;;;;;;44.70;29.90;;;;;;;11.48;96.73;100541.29;108251;1253;73128;-67
2024/03/17 10:24:28;;;;;;;40.30;27.50;;;;;;;11.47;94.98;100540.20;100518;1255;10002090;-68
2024/03/17 10:26:56;;;;;;;;;;;;;;;11.38;93.76;100537.34;100577;1257;10001592;-67
2024/03/17 10:29:31;;;;;;;41.30;29.20;;;;;;;11.29;93.26;100538.00;108102;1253;61794;-69
2024/03/17 10:32:03;;;;;;;41.10;28.70;;;;;;;11.24;93.39;100535.59;108026;1253;62246;-67
2024/03/17 10:34:37;;;;;;;41.10;28.70;;;;;;;11.23;93.57;100534.98;108178;1257;77176;-67
2024/03/17 10:37:14;;;;;;;45.00;30.10;;;;;;;11.22;93.41;100529.58;108163;1254;73743;-67
2024/03/17 10:39:42;;;;;;;42.70;29.70;;;;;;;11.18;93.28;100533.09;108238;1254;72811;-67
2024/03/17 10:42:12;;;;;;;41.80;28.90;;;;;;;11.17;93.71;100531.86;108193;1253;60394;-67
2024/03/17 10:44:41;;;;;;;45.50;29.50;;;;;;;11.14;93.62;100530.30;108227;1254;61119;-67
2024/03/17 10:47:24;;;;;;;42.60;28.60;;;;;;;11.12;93.99;100525.48;108207;1254;76978;-67
2024/03/17 10:49:54;;;;;;;40.20;28.20;;;;;;;11.13;94.35;100526.77;108254;1254;72967;-67
2024/03/17 10:52:25;;;;;;;41.20;28.60;;;;;;;11.13;94.20;100520.41;108241;1254;73788;-67
2024/03/17 10:55:07;;;;;;;;;;;;;;;11.12;94.18;100520.13;108239;1254;61779;-68
2024/03/17 10:57:35;;;;;;;44.10;30.70;;;;;;;11.08;94.08;100520.11;108250;1253;61252;-68
2024/03/17 11:00:05;;;;;;;43.80;29.60;;;;;;;10.99;94.16;100512.43;108252;1254;74816;-71
2024/03/17 11:02:33;;;;;;;42.90;29.40;;;;;;;10.93;94.68;100511.08;108211;1254;75090;-68
2024/03/17 11:05:24;;;;;;;45.00;29.60;;;;;;;10.91;95.55;100506.83;108146;1254;72762;-67
2024/03/17 11:07:54;;;;;;;43.20;28.70;;;;;;;10.95;96.10;100502.85;108112;1254;61311;-67
2024/03/17 11:10:30;;;;;;;43.70;30.10;;;;;;;10.99;96.37;100497.26;108253;1254;62277;-68
2024/03/17 11:13:02;;;;;;;44.60;30.60;;;;;;;11.03;96.39;100497.33;108226;1252;75975;-68
2024/03/17 11:15:29;;;;;;;43.00;30.60;;;;;;;11.09;96.08;100495.10;108222;1253;72990;-66